Terminal Aerodrome Forecast
Issued by NWS

Home | Current Version | Previous Version | Text Only | Print | Product List | Glossary On
Versions: 1 2 3 4 5 6 7 8 9 10 11 12 13 14
000
FTUS46 KSEW 042300
TAFOLM
TAF
KOLM 042321Z 0500/0524 23008G18KT P6SM VCSH OVC045
     FM050400 20007KT P6SM VCSH SCT020 BKN035
     FM051800 21011KT P6SM -SHRA BKN035=

USA.gov is the U.S. government's official web portal to all federal, state and local government web resources and services.